createdAt,value
2023-05-17T00:00:59.690Z,96268.19
2023-05-17T00:06:01.778Z,96259.31
2023-05-17T00:11:05.149Z,96271.66
2023-05-17T00:16:08.275Z,96278.22
2023-05-17T00:21:10.301Z,96275.69
2023-05-17T00:26:13.951Z,96267.34
2023-05-17T00:31:16.052Z,96276.84
2023-05-17T00:36:18.016Z,96285.91
2023-05-17T00:41:21.359Z,96286.16
2023-05-17T00:46:23.348Z,96282.63
2023-05-17T00:51:25.598Z,96286.69
2023-05-17T00:56:29.266Z,96287.09
2023-05-17T01:01:31.906Z,96271.44
2023-05-17T01:06:34.336Z,96277.25
2023-05-17T01:11:48.502Z,96287.03
2023-05-17T01:16:56.257Z,96294.56
2023-05-17T01:22:10.679Z,96306.69
2023-05-17T01:27:16.576Z,96304.44
2023-05-17T01:32:19.722Z,96308.16
2023-05-17T01:37:21.760Z,96307.13
2023-05-17T01:42:31.026Z,96309.63
2023-05-17T01:47:39.727Z,96324.13
2023-05-17T01:52:48.282Z,96329.19
2023-05-17T01:57:54.255Z,96316.59
2023-05-17T02:02:56.341Z,96328.13
2023-05-17T02:07:58.393Z,96334.09
2023-05-17T02:13:01.843Z,96341.25
2023-05-17T02:18:04.230Z,96353.16
2023-05-17T02:23:06.501Z,96349.69
2023-05-17T02:28:09.835Z,96369.88
2023-05-17T02:33:11.989Z,96372.28
2023-05-17T02:38:14.050Z,96365.19
2023-05-17T02:43:17.388Z,96351.22
2023-05-17T02:48:19.565Z,96358.97
2023-05-17T02:53:21.619Z,96359.97
2023-05-17T02:58:25.162Z,96347.69
2023-05-17T03:03:27.401Z,96347.16
2023-05-17T03:08:29.601Z,96351.38
2023-05-17T03:13:33.012Z,96351.16
2023-05-17T03:18:35.973Z,96357.94
2023-05-17T03:23:38.117Z,96352.81
2023-05-17T03:28:41.478Z,96360.28
2023-05-17T03:33:43.702Z,96368.06
2023-05-17T03:38:46.038Z,96381.06
2023-05-17T03:43:49.405Z,96374.25
2023-05-17T03:48:51.729Z,96385.63
2023-05-17T03:53:58.459Z,96405.50
2023-05-17T03:59:01.803Z,96412.25
2023-05-17T04:04:04.474Z,96422.44
2023-05-17T04:09:07.413Z,96427.47
2023-05-17T04:14:10.902Z,96433.16
2023-05-17T04:19:13.013Z,96426.06
2023-05-17T04:24:15.081Z,96425.97
2023-05-17T04:29:18.428Z,96436.59
2023-05-17T04:34:22.274Z,96441.94
2023-05-17T04:39:24.731Z,96447.66
2023-05-17T04:44:28.219Z,96442.78
2023-05-17T04:49:30.250Z,96446.75
2023-05-17T04:54:32.225Z,96456.63
2023-05-17T04:59:35.541Z,96461.69
2023-05-17T05:04:37.701Z,96471.25
2023-05-17T05:09:39.752Z,96490.56
2023-05-17T05:14:43.195Z,96493.25
2023-05-17T05:19:45.681Z,96500.75
2023-05-17T05:24:47.691Z,96501.06
2023-05-17T05:29:53.169Z,96506.78
2023-05-17T05:34:55.302Z,96509.44
2023-05-17T05:39:57.444Z,96512.69
2023-05-17T05:45:00.956Z,96525.44
2023-05-17T05:50:03.317Z,96532.50
2023-05-17T05:55:06.343Z,96534.19
2023-05-17T06:00:11.962Z,96535.06
2023-05-17T06:05:13.982Z,96554.97
2023-05-17T06:10:16.187Z,96552.97
2023-05-17T06:15:19.599Z,96571.91
2023-05-17T06:20:21.612Z,96576.25
2023-05-17T06:25:23.678Z,96584.16
2023-05-17T06:30:27.648Z,96572.47
2023-05-17T06:35:33.194Z,96584.59
2023-05-17T06:40:42.857Z,96593.72
2023-05-17T06:45:46.555Z,96595.94
2023-05-17T06:50:48.712Z,96600.66
2023-05-17T06:55:50.757Z,96615.00
2023-05-17T07:00:54.096Z,96624.69
2023-05-17T07:05:56.213Z,96624.88
2023-05-17T07:10:58.297Z,96626.59
2023-05-17T07:16:01.701Z,96624.84
2023-05-17T07:21:04.101Z,96636.50
2023-05-17T07:26:06.146Z,96662.53
2023-05-17T07:31:09.520Z,96665.06
2023-05-17T07:36:11.740Z,96671.94
2023-05-17T07:41:16.880Z,96670.44
2023-05-17T07:46:20.310Z,96686.38
2023-05-17T07:51:22.342Z,96688.09
2023-05-17T07:56:24.378Z,96693.38
2023-05-17T08:01:27.871Z,96697.00
2023-05-17T08:06:29.891Z,96694.16
2023-05-17T08:11:35.135Z,96696.50
2023-05-17T08:16:38.651Z,96701.38
2023-05-17T08:21:41.190Z,96699.25
2023-05-17T08:26:43.175Z,96709.59
2023-05-17T08:31:46.557Z,96714.25
2023-05-17T08:36:48.701Z,96717.28
2023-05-17T08:41:50.767Z,96724.91
2023-05-17T08:46:56.321Z,96730.44
2023-05-17T08:52:00.810Z,96737.13
2023-05-17T08:57:06.755Z,96742.00
2023-05-17T09:02:10.267Z,96741.69
2023-05-17T09:07:12.359Z,96744.53
2023-05-17T09:12:14.377Z,96752.13
2023-05-17T09:17:19.630Z,96760.31
2023-05-17T09:22:22.254Z,96758.78
2023-05-17T09:27:24.244Z,96767.38
2023-05-17T09:32:28.604Z,96761.19
2023-05-17T09:37:30.890Z,96776.09
2023-05-17T09:42:37.220Z,96774.84
2023-05-17T09:47:40.701Z,96792.19
2023-05-17T09:52:42.788Z,96791.72
2023-05-17T09:57:44.849Z,96794.00
2023-05-17T10:02:50.088Z,96801.97
2023-05-17T10:07:56.349Z,96810.38
2023-05-17T10:13:00.733Z,96821.41
2023-05-17T10:18:06.561Z,96825.66
2023-05-17T10:23:08.691Z,96821.41
2023-05-17T10:28:12.707Z,96825.94
2023-05-17T10:33:18.626Z,96823.63
2023-05-17T10:38:24.000Z,96825.94
2023-05-17T10:43:30.463Z,96817.63
2023-05-17T10:48:34.951Z,96818.09
2023-05-17T10:54:04.353Z,96812.72
2023-05-17T10:59:17.746Z,96821.94
2023-05-17T11:04:26.695Z,96829.97
2023-05-17T11:09:32.284Z,96834.59
2023-05-17T11:14:47.317Z,96839.19
2023-05-17T11:19:58.478Z,96845.63
2023-05-17T11:25:05.604Z,96848.06
2023-05-17T11:30:10.497Z,96858.91
2023-05-17T11:35:14.634Z,96846.22
2023-05-17T11:40:25.362Z,96858.47
2023-05-17T11:45:28.104Z,96867.03
2023-05-17T11:50:31.786Z,96861.22
2023-05-17T11:55:37.676Z,96875.00
2023-05-17T12:00:42.081Z,96877.13
2023-05-17T12:05:46.561Z,96891.03
2023-05-17T12:10:50.521Z,96888.75
2023-05-17T12:15:56.274Z,96891.66
2023-05-17T12:21:00.298Z,96904.97
2023-05-17T12:26:07.387Z,96915.19
2023-05-17T12:31:12.045Z,96919.47
2023-05-17T12:36:16.244Z,96922.34
2023-05-17T12:41:18.777Z,96932.44
2023-05-17T12:46:23.006Z,96940.63
2023-05-17T12:51:26.341Z,96950.88
2023-05-17T12:56:29.337Z,96958.06
2023-05-17T13:01:33.648Z,96947.03
2023-05-17T13:06:47.861Z,96945.50
2023-05-17T13:11:54.533Z,96961.38
2023-05-17T13:16:56.579Z,96959.56
2023-05-17T13:21:59.991Z,96959.84
2023-05-17T13:27:02.392Z,96964.56
2023-05-17T13:32:05.674Z,96972.16
2023-05-17T13:37:12.094Z,96974.78
2023-05-17T13:42:14.618Z,96986.47
2023-05-17T13:47:16.624Z,97001.13
2023-05-17T13:52:20.139Z,97010.06
2023-05-17T13:57:22.291Z,97003.72
2023-05-17T14:02:24.319Z,97007.31
2023-05-17T14:07:27.761Z,97009.72
2023-05-17T14:12:29.635Z,97020.09
2023-05-17T14:17:33.074Z,97028.56
2023-05-17T14:22:36.526Z,97031.09
2023-05-17T14:27:38.533Z,97031.41
2023-05-17T14:32:40.645Z,97039.38
2023-05-17T14:37:44.344Z,97048.91
2023-05-17T14:42:46.589Z,97036.75
2023-05-17T14:47:48.709Z,97033.19
2023-05-17T14:52:52.161Z,97035.25
2023-05-17T14:57:54.854Z,97038.22
2023-05-17T15:02:57.053Z,97044.91
2023-05-17T15:08:00.582Z,97050.50
2023-05-17T15:13:02.647Z,97053.38
2023-05-17T15:18:05.376Z,97056.16
2023-05-17T15:23:08.789Z,97056.03
2023-05-17T15:28:10.856Z,97052.28
2023-05-17T15:33:13.153Z,97049.00
2023-05-17T15:38:17.053Z,97055.41
2023-05-17T15:43:19.112Z,97057.78
2023-05-17T15:48:23.466Z,97063.28
2023-05-17T15:53:28.533Z,97058.78
2023-05-17T15:58:33.430Z,97056.38
2023-05-17T16:03:35.677Z,97051.03
